createdAt,value
2022-12-18T00:01:37.535Z,1.40
2022-12-18T00:04:09.296Z,1.40
2022-12-18T00:06:38.243Z,1.80
2022-12-18T00:09:07.133Z,1.70
2022-12-18T00:11:36.026Z,1.50
2022-12-18T00:14:05.191Z,1.40
2022-12-18T00:16:36.666Z,2.00
2022-12-18T00:19:06.844Z,0.90
2022-12-18T00:21:35.683Z,1.00
2022-12-18T00:24:05.292Z,1.40
2022-12-18T00:26:35.491Z,1.20
2022-12-18T00:29:15.083Z,1.20
2022-12-18T00:31:45.431Z,3.00
2022-12-18T00:34:14.882Z,1.80
2022-12-18T00:36:43.671Z,2.50
2022-12-18T00:39:14.301Z,2.00
2022-12-18T00:42:05.036Z,1.20
2022-12-18T00:44:33.895Z,1.60
2022-12-18T00:47:02.684Z,2.00
2022-12-18T00:49:31.469Z,1.30
2022-12-18T00:52:00.155Z,2.60
2022-12-18T00:54:29.172Z,1.50
2022-12-18T00:56:57.935Z,2.40
2022-12-18T00:59:26.827Z,3.40
2022-12-18T01:01:55.743Z,1.40
2022-12-18T01:04:24.710Z,2.30
2022-12-18T01:06:53.606Z,3.40
2022-12-18T01:09:22.389Z,1.70
2022-12-18T01:11:51.075Z,1.40
2022-12-18T01:14:19.883Z,2.00
2022-12-18T01:16:49.282Z,1.60
2022-12-18T01:19:18.055Z,1.60
2022-12-18T01:21:49.097Z,0.90
2022-12-18T01:24:17.720Z,1.00
2022-12-18T01:26:47.081Z,1.40
2022-12-18T01:29:16.972Z,1.10
2022-12-18T01:31:45.718Z,1.00
2022-12-18T01:34:14.731Z,1.50
2022-12-18T01:36:44.312Z,1.80
2022-12-18T01:39:15.045Z,0.80
2022-12-18T01:42:02.954Z,1.70
2022-12-18T01:44:54.165Z,2.30
2022-12-18T01:47:25.924Z,2.30
2022-12-18T01:49:56.454Z,1.50
2022-12-18T01:52:29.236Z,2.60
2022-12-18T01:54:59.045Z,2.00
2022-12-18T01:57:29.883Z,1.00
2022-12-18T02:00:06.263Z,0.90
2022-12-18T02:02:43.443Z,1.20
2022-12-18T02:05:16.230Z,2.40
2022-12-18T02:07:48.716Z,1.40
2022-12-18T02:10:43.805Z,1.80
2022-12-18T02:13:28.049Z,1.60
2022-12-18T02:16:22.396Z,1.30
2022-12-18T02:19:02.393Z,2.60
2022-12-18T02:21:52.591Z,1.30
2022-12-18T02:24:46.755Z,2.60
2022-12-18T02:27:17.340Z,1.70
2022-12-18T02:29:58.905Z,1.30
2022-12-18T02:32:35.753Z,2.20
2022-12-18T02:35:07.271Z,1.70
2022-12-18T02:40:09.391Z,1.30
2022-12-18T02:42:38.888Z,1.70
2022-12-18T02:45:09.460Z,1.90
2022-12-18T02:47:42.146Z,1.40
2022-12-18T02:50:36.281Z,1.80
2022-12-18T02:53:35.397Z,2.80
2022-12-18T02:56:16.973Z,1.70
2022-12-18T02:59:20.252Z,1.90
2022-12-18T03:02:08.221Z,1.80
2022-12-18T03:05:02.700Z,1.40
2022-12-18T03:07:39.427Z,2.40
2022-12-18T03:10:16.039Z,1.40
2022-12-18T03:12:53.073Z,3.10
2022-12-18T03:15:35.223Z,3.30
2022-12-18T03:18:14.259Z,1.70
2022-12-18T03:20:45.819Z,1.40
2022-12-18T03:23:25.984Z,1.70
2022-12-18T03:26:05.963Z,2.10
2022-12-18T03:28:43.415Z,0.90
2022-12-18T03:31:15.342Z,1.50
2022-12-18T03:33:53.077Z,1.20
2022-12-18T03:36:24.206Z,1.70
2022-12-18T03:38:53.936Z,2.00
2022-12-18T03:41:34.945Z,2.20
2022-12-18T03:44:38.803Z,0.90
2022-12-18T03:47:29.129Z,2.60
2022-12-18T03:50:12.637Z,2.30
2022-12-18T03:53:20.634Z,2.30
2022-12-18T03:55:52.410Z,2.00
2022-12-18T03:58:26.609Z,1.10
2022-12-18T04:01:16.165Z,2.50
2022-12-18T04:03:48.351Z,3.80
2022-12-18T04:06:18.841Z,1.70
2022-12-18T04:08:48.498Z,3.00
2022-12-18T04:11:19.939Z,1.50
2022-12-18T04:13:49.454Z,1.70
2022-12-18T04:16:25.344Z,2.20
2022-12-18T04:18:56.143Z,2.50
2022-12-18T04:21:26.164Z,1.60
2022-12-18T04:23:55.019Z,1.80
2022-12-18T04:26:24.373Z,1.20
2022-12-18T04:29:15.445Z,1.40
2022-12-18T04:31:44.655Z,3.70
2022-12-18T04:34:13.241Z,1.90
2022-12-18T04:36:47.395Z,1.50
2022-12-18T04:39:19.676Z,2.30
2022-12-18T04:44:17.047Z,2.90
2022-12-18T04:46:45.935Z,1.80
2022-12-18T04:49:14.749Z,1.90
2022-12-18T04:51:43.197Z,2.80
2022-12-18T04:54:11.770Z,2.60
2022-12-18T04:56:40.916Z,1.60
2022-12-18T04:59:09.417Z,1.40
2022-12-18T05:01:37.891Z,4.30
2022-12-18T05:04:06.728Z,2.20
2022-12-18T05:06:35.437Z,2.10
2022-12-18T05:09:04.017Z,3.10
2022-12-18T05:11:32.571Z,3.00
2022-12-18T05:14:01.044Z,2.20
2022-12-18T05:16:29.559Z,3.10
2022-12-18T05:18:59.093Z,2.30
2022-12-18T05:21:27.780Z,1.50
2022-12-18T05:23:56.288Z,2.00
2022-12-18T05:26:24.857Z,2.10
2022-12-18T05:28:53.310Z,3.40
2022-12-18T05:31:21.784Z,3.60
2022-12-18T05:33:50.302Z,4.30
2022-12-18T05:36:18.816Z,4.00
2022-12-18T05:38:47.359Z,2.70
2022-12-18T05:41:15.964Z,4.90
2022-12-18T05:43:44.641Z,5.20
2022-12-18T05:46:18.945Z,6.40
2022-12-18T05:48:48.156Z,3.70
2022-12-18T05:51:19.605Z,2.90
2022-12-18T05:53:48.547Z,3.70
2022-12-18T05:56:20.763Z,5.20
2022-12-18T06:01:25.106Z,2.70
2022-12-18T06:03:54.060Z,4.10
2022-12-18T06:06:28.323Z,3.80
2022-12-18T06:08:57.902Z,2.20
2022-12-18T06:11:28.071Z,4.00
2022-12-18T06:13:59.004Z,3.40
2022-12-18T06:16:32.068Z,2.70
2022-12-18T06:19:02.173Z,4.40
2022-12-18T06:21:31.779Z,4.20
2022-12-18T06:24:01.554Z,3.80
2022-12-18T06:26:30.224Z,2.70
2022-12-18T06:28:58.751Z,3.70
2022-12-18T06:31:27.631Z,3.20
2022-12-18T06:33:56.340Z,4.40
2022-12-18T06:36:24.959Z,4.90
2022-12-18T06:38:53.439Z,3.50
2022-12-18T06:41:22.745Z,2.70
2022-12-18T06:43:52.251Z,3.50
2022-12-18T06:46:23.205Z,3.50
2022-12-18T06:48:51.987Z,4.30
2022-12-18T06:51:25.809Z,4.10
2022-12-18T06:53:54.372Z,3.30
2022-12-18T06:56:23.385Z,5.20
2022-12-18T06:58:52.142Z,4.40
2022-12-18T07:01:20.809Z,7.50
2022-12-18T07:03:56.748Z,5.60
2022-12-18T07:06:26.650Z,3.40
2022-12-18T07:08:55.575Z,3.90
2022-12-18T07:11:24.680Z,5.60
2022-12-18T07:13:54.242Z,3.70
2022-12-18T07:16:25.652Z,4.00
2022-12-18T07:18:56.593Z,2.20
2022-12-18T07:21:25.887Z,4.20
2022-12-18T07:23:54.417Z,4.20
2022-12-18T07:26:23.735Z,2.10
2022-12-18T07:28:56.457Z,3.20
2022-12-18T07:31:25.614Z,3.00
2022-12-18T07:33:54.352Z,2.90
2022-12-18T07:36:25.788Z,3.40
2022-12-18T07:38:54.721Z,6.60
2022-12-18T07:41:23.512Z,3.50
2022-12-18T07:43:52.347Z,5.90
2022-12-18T07:46:21.116Z,4.90
2022-12-18T07:48:50.403Z,4.90
2022-12-18T07:51:19.698Z,4.10
2022-12-18T07:53:51.284Z,4.90
2022-12-18T07:56:27.603Z,6.80
2022-12-18T07:58:57.675Z,5.60
2022-12-18T08:01:26.667Z,2.90
2022-12-18T08:03:55.341Z,2.70
2022-12-18T08:06:24.769Z,3.00
2022-12-18T08:08:55.028Z,4.20
2022-12-18T08:11:25.366Z,4.10
2022-12-18T08:13:54.678Z,4.00
2022-12-18T08:16:23.746Z,5.00
2022-12-18T08:18:54.608Z,4.80
2022-12-18T08:21:26.587Z,4.70
2022-12-18T08:23:57.189Z,3.50
2022-12-18T08:26:28.437Z,3.90
2022-12-18T08:28:58.775Z,3.70
2022-12-18T08:31:28.889Z,4.30
2022-12-18T08:33:58.555Z,5.50
2022-12-18T08:36:27.792Z,5.60
2022-12-18T08:38:57.491Z,5.30
2022-12-18T08:41:26.325Z,5.90
2022-12-18T08:44:13.389Z,7.90
2022-12-18T08:46:43.520Z,4.80
2022-12-18T08:49:12.730Z,5.50
2022-12-18T08:51:41.688Z,4.30
2022-12-18T08:54:14.819Z,3.20
2022-12-18T08:56:43.903Z,5.30
2022-12-18T08:59:19.041Z,6.40
2022-12-18T09:01:49.967Z,3.80
2022-12-18T09:04:18.843Z,4.50
2022-12-18T09:06:48.867Z,6.40
2022-12-18T09:09:17.964Z,7.90
2022-12-18T09:11:48.676Z,3.90
2022-12-18T09:14:17.356Z,4.10
2022-12-18T09:16:46.910Z,3.40
2022-12-18T09:19:16.647Z,3.20
2022-12-18T09:21:48.444Z,4.30
2022-12-18T09:24:17.906Z,5.50
2022-12-18T09:26:47.208Z,5.50
2022-12-18T09:29:18.994Z,6.40
2022-12-18T09:31:48.854Z,9.60
2022-12-18T09:34:17.960Z,4.10
2022-12-18T09:36:46.846Z,4.80
2022-12-18T09:39:17.362Z,6.30
2022-12-18T09:41:54.809Z,5.60
2022-12-18T09:44:43.072Z,7.10
2022-12-18T09:47:19.827Z,4.80
2022-12-18T09:49:56.344Z,2.80
2022-12-18T09:52:32.627Z,3.50
2022-12-18T09:55:08.781Z,3.60
2022-12-18T09:57:45.645Z,3.00
2022-12-18T10:00:22.714Z,3.20
2022-12-18T10:02:55.210Z,2.60
2022-12-18T10:08:02.693Z,4.60
2022-12-18T10:10:58.674Z,2.80
2022-12-18T10:13:38.927Z,3.80
2022-12-18T10:16:14.972Z,3.10
2022-12-18T10:18:53.645Z,4.80
2022-12-18T10:21:44.663Z,2.70
2022-12-18T10:24:28.625Z,5.60
2022-12-18T10:27:12.637Z,4.20
2022-12-18T10:29:44.822Z,9.70
2022-12-18T10:32:26.611Z,4.50
2022-12-18T10:35:00.881Z,4.70
2022-12-18T10:37:34.743Z,6.20
2022-12-18T10:40:22.246Z,2.60
2022-12-18T10:43:13.410Z,4.00
2022-12-18T10:45:44.587Z,2.70
2022-12-18T10:48:23.663Z,3.70
2022-12-18T10:51:13.995Z,4.80
2022-12-18T10:54:03.620Z,4.60
2022-12-18T10:56:39.646Z,5.10
2022-12-18T10:59:16.627Z,4.00
2022-12-18T11:02:00.751Z,4.70
2022-12-18T11:04:36.609Z,2.90
2022-12-18T11:07:12.635Z,6.40
2022-12-18T11:09:45.572Z,5.60
2022-12-18T11:12:25.596Z,5.70
2022-12-18T11:14:59.625Z,4.40
2022-12-18T11:17:37.655Z,3.80
2022-12-18T11:20:26.657Z,2.50
2022-12-18T11:23:07.688Z,3.50
2022-12-18T11:25:40.595Z,3.70
2022-12-18T11:28:39.107Z,3.90
2022-12-18T11:31:34.659Z,4.80
2022-12-18T11:34:30.829Z,3.70
2022-12-18T11:37:05.596Z,6.00
2022-12-18T11:39:48.650Z,1.80
2022-12-18T11:42:44.625Z,5.20
2022-12-18T11:45:38.570Z,2.30
2022-12-18T11:48:35.721Z,4.40
2022-12-18T11:59:57.314Z,3.50
2022-12-18T12:02:54.471Z,2.80
2022-12-18T12:05:48.445Z,4.20
2022-12-18T12:08:51.587Z,3.70
2022-12-18T12:11:40.598Z,3.00
2022-12-18T12:14:18.103Z,2.60
2022-12-18T12:17:01.316Z,6.50
2022-12-18T12:19:48.533Z,4.10
2022-12-18T12:22:48.766Z,2.20
2022-12-18T12:25:47.859Z,3.00
2022-12-18T12:28:22.501Z,2.90
2022-12-18T12:31:05.225Z,2.90
2022-12-18T12:34:02.555Z,2.80
2022-12-18T12:37:13.330Z,3.00
2022-12-18T12:39:45.907Z,3.70
2022-12-18T12:42:40.087Z,2.30
2022-12-18T12:45:19.744Z,2.60
2022-12-18T12:47:51.361Z,4.70
2022-12-18T12:50:22.688Z,4.10
2022-12-18T12:52:57.047Z,5.60
2022-12-18T12:55:29.043Z,3.80
2022-12-18T12:58:00.470Z,2.10
2022-12-18T13:00:40.882Z,3.30
2022-12-18T13:03:25.386Z,4.00
2022-12-18T13:06:04.380Z,4.20
2022-12-18T13:08:54.847Z,4.20
2022-12-18T13:12:05.796Z,3.40
2022-12-18T13:14:39.204Z,3.00
2022-12-18T13:17:20.470Z,3.30
2022-12-18T13:20:05.747Z,3.80
2022-12-18T13:22:42.206Z,5.00
2022-12-18T13:25:34.964Z,3.00
2022-12-18T13:30:49.323Z,3.40
2022-12-18T13:33:19.547Z,1.70
2022-12-18T13:35:48.430Z,3.40
2022-12-18T13:38:32.484Z,4.60
2022-12-18T13:41:01.676Z,3.70
2022-12-18T13:44:03.145Z,3.30
2022-12-18T13:46:46.542Z,2.90
2022-12-18T13:49:15.348Z,4.00
2022-12-18T13:51:48.441Z,4.60
2022-12-18T13:54:35.457Z,3.20
2022-12-18T13:57:07.685Z,4.50
2022-12-18T13:59:41.585Z,5.00
2022-12-18T14:02:13.615Z,4.60
2022-12-18T14:04:46.481Z,4.30
2022-12-18T14:15:28.535Z,5.60
2022-12-18T14:18:23.140Z,4.60
2022-12-18T14:20:55.437Z,5.00
2022-12-18T14:23:41.936Z,5.00
2022-12-18T14:26:30.283Z,3.70
2022-12-18T14:29:18.445Z,3.90
2022-12-18T14:32:18.868Z,5.10
2022-12-18T14:34:50.906Z,3.60
2022-12-18T14:37:28.714Z,3.90
2022-12-18T14:40:10.833Z,4.00
2022-12-18T14:42:41.481Z,5.10
2022-12-18T14:45:42.624Z,5.60
2022-12-18T14:48:34.085Z,3.40
2022-12-18T14:51:07.313Z,4.90
2022-12-18T14:53:47.513Z,9.10
2022-12-18T14:56:24.156Z,3.70
2022-12-18T14:58:59.673Z,4.70
2022-12-18T15:01:32.985Z,2.70
2022-12-18T15:04:04.327Z,6.60
2022-12-18T15:06:38.719Z,3.80
2022-12-18T15:09:25.621Z,5.30
2022-12-18T15:12:01.083Z,3.80
2022-12-18T15:14:41.833Z,6.10
2022-12-18T15:17:23.228Z,9.10
2022-12-18T15:20:00.126Z,4.50
2022-12-18T15:22:36.261Z,7.70
2022-12-18T15:25:35.561Z,2.70
2022-12-18T15:28:16.873Z,4.00
2022-12-18T15:31:02.674Z,7.30
2022-12-18T15:33:34.655Z,4.70
2022-12-18T15:36:09.729Z,6.30
2022-12-18T15:38:39.023Z,4.70
2022-12-18T15:41:14.566Z,7.80
2022-12-18T15:43:44.173Z,4.60
2022-12-18T15:46:16.358Z,3.80
2022-12-18T15:48:50.973Z,4.00
2022-12-18T15:51:24.376Z,8.20
2022-12-18T15:53:59.820Z,4.30
2022-12-18T15:56:48.083Z,11.10
2022-12-18T15:59:19.559Z,4.40
2022-12-18T16:01:51.346Z,6.00
2022-12-18T16:04:22.681Z,4.40
2022-12-18T16:09:42.211Z,4.00
2022-12-18T16:12:22.007Z,4.60
2022-12-18T16:14:51.872Z,5.00
2022-12-18T16:17:20.557Z,6.00
2022-12-18T16:19:49.651Z,5.00
2022-12-18T16:22:27.339Z,8.00
2022-12-18T16:24:57.565Z,4.20
2022-12-18T16:27:26.879Z,5.00
2022-12-18T16:29:55.651Z,8.60
2022-12-18T16:32:24.799Z,4.40
2022-12-18T16:34:53.739Z,4.10
2022-12-18T16:37:22.641Z,5.80
2022-12-18T16:39:51.729Z,5.00
2022-12-18T16:42:21.639Z,5.70
2022-12-18T16:44:50.888Z,6.50
2022-12-18T16:47:20.351Z,7.10
2022-12-18T16:49:52.043Z,9.10
2022-12-18T16:52:21.707Z,6.90
2022-12-18T16:54:50.406Z,7.40
2022-12-18T16:57:21.638Z,4.60
2022-12-18T16:59:54.337Z,7.50
2022-12-18T17:02:27.291Z,7.40
2022-12-18T17:04:58.551Z,6.20
2022-12-18T17:07:28.710Z,10.70
2022-12-18T17:09:57.529Z,6.70
2022-12-18T17:12:27.272Z,10.10
2022-12-18T17:14:55.960Z,7.00
2022-12-18T17:17:24.923Z,6.20
2022-12-18T17:19:54.251Z,4.30
2022-12-18T17:22:25.606Z,6.10
2022-12-18T17:24:54.590Z,7.40
2022-12-18T17:27:23.480Z,8.00
2022-12-18T17:29:52.573Z,5.40
2022-12-18T17:32:21.467Z,4.80
2022-12-18T17:34:50.255Z,5.60
2022-12-18T17:37:19.256Z,8.00
2022-12-18T17:39:48.040Z,6.70
2022-12-18T17:42:17.274Z,6.00
2022-12-18T17:44:46.030Z,6.20
2022-12-18T17:47:15.731Z,8.50
2022-12-18T17:49:46.260Z,6.50
2022-12-18T17:52:15.356Z,6.30
2022-12-18T17:54:44.449Z,6.60
2022-12-18T17:57:13.256Z,3.80
2022-12-18T17:59:42.540Z,4.50
2022-12-18T18:02:12.522Z,6.80
2022-12-18T18:04:41.963Z,7.30
2022-12-18T18:07:10.850Z,6.50
2022-12-18T18:10:36.680Z,5.50
2022-12-18T18:14:38.245Z,8.30
2022-12-18T18:17:23.925Z,5.70
2022-12-18T18:20:49.405Z,4.10
2022-12-18T18:23:21.610Z,6.60
2022-12-18T18:25:53.258Z,7.90
2022-12-18T18:28:22.711Z,5.10
2022-12-18T18:30:51.767Z,2.80
2022-12-18T18:33:21.161Z,7.40
2022-12-18T18:35:54.417Z,5.80
2022-12-18T18:38:23.778Z,7.00
2022-12-18T18:41:03.925Z,7.40
2022-12-18T18:43:33.311Z,6.40
2022-12-18T18:46:04.610Z,7.10
2022-12-18T18:48:36.601Z,7.70
2022-12-18T18:51:09.919Z,5.40
2022-12-18T18:53:46.301Z,5.50
2022-12-18T18:56:56.632Z,6.20
2022-12-18T18:59:07.101Z,6.40
2022-12-18T19:01:36.504Z,7.10
2022-12-18T19:04:07.037Z,8.70
2022-12-18T19:06:36.139Z,7.80
2022-12-18T19:09:06.788Z,7.10
2022-12-18T19:11:54.605Z,4.70
2022-12-18T19:14:24.645Z,6.40
2022-12-18T19:16:54.468Z,5.60
2022-12-18T19:19:25.571Z,7.90
2022-12-18T19:21:54.787Z,7.30
2022-12-18T19:24:23.660Z,7.10
2022-12-18T19:26:52.757Z,6.20
2022-12-18T19:29:25.745Z,6.20
2022-12-18T19:31:54.790Z,7.30
2022-12-18T19:34:23.625Z,5.20
2022-12-18T19:36:57.949Z,5.90
2022-12-18T19:39:28.840Z,8.30
2022-12-18T19:41:59.108Z,5.10
2022-12-18T19:44:28.096Z,7.40
2022-12-18T19:46:57.492Z,7.60
2022-12-18T19:49:26.286Z,6.50
2022-12-18T19:51:55.791Z,6.00
2022-12-18T19:54:24.899Z,6.40
2022-12-18T19:56:55.113Z,5.30
2022-12-18T19:59:24.175Z,7.60
2022-12-18T20:01:54.611Z,9.40
2022-12-18T20:04:24.105Z,7.50
2022-12-18T20:06:54.457Z,6.80
2022-12-18T20:09:24.077Z,5.20
2022-12-18T20:11:53.875Z,8.70
2022-12-18T20:14:23.794Z,7.40
2022-12-18T20:16:53.464Z,7.20
2022-12-18T20:19:25.155Z,4.80
2022-12-18T20:21:53.839Z,5.70
2022-12-18T20:24:22.841Z,5.10
2022-12-18T20:26:51.738Z,8.00
2022-12-18T20:29:20.718Z,6.50
2022-12-18T20:31:49.679Z,7.10
2022-12-18T20:34:19.225Z,4.50
2022-12-18T20:36:48.414Z,5.70
2022-12-18T20:39:18.223Z,5.50
2022-12-18T20:41:48.180Z,10.80
2022-12-18T20:44:22.388Z,5.20
2022-12-18T20:46:57.770Z,5.60
2022-12-18T20:49:27.458Z,9.50
2022-12-18T20:51:57.901Z,5.50
2022-12-18T20:54:27.651Z,7.60
2022-12-18T20:56:57.807Z,5.90
2022-12-18T20:59:26.797Z,5.50
2022-12-18T21:01:56.206Z,4.00
2022-12-18T21:04:25.698Z,9.70
2022-12-18T21:06:58.018Z,4.80
2022-12-18T21:09:38.203Z,7.60
2022-12-18T21:12:34.911Z,8.30
2022-12-18T21:15:14.388Z,4.90
2022-12-18T21:17:44.539Z,4.50
2022-12-18T21:20:17.792Z,8.60
2022-12-18T21:22:49.385Z,5.80
2022-12-18T21:25:18.190Z,4.80
2022-12-18T21:27:47.020Z,5.70
2022-12-18T21:30:15.849Z,4.90
2022-12-18T21:32:44.521Z,12.70
2022-12-18T21:35:13.358Z,4.40
2022-12-18T21:37:42.016Z,8.70
2022-12-18T21:40:11.273Z,7.10
2022-12-18T21:42:58.764Z,5.90
2022-12-18T21:45:27.482Z,6.90
2022-12-18T21:47:56.136Z,8.30
2022-12-18T21:50:24.853Z,7.80
2022-12-18T21:52:53.443Z,9.30
2022-12-18T21:55:22.141Z,7.20
2022-12-18T21:57:51.204Z,5.70
2022-12-18T22:00:19.952Z,5.50
2022-12-18T22:03:13.401Z,6.20
2022-12-18T22:05:38.975Z,7.10
2022-12-18T22:08:08.111Z,5.50
2022-12-18T22:10:37.828Z,8.00
2022-12-18T22:13:07.840Z,5.40
2022-12-18T22:15:36.499Z,6.10
2022-12-18T22:18:05.264Z,5.90
2022-12-18T22:20:34.576Z,5.10
2022-12-18T22:23:05.964Z,6.40
2022-12-18T22:25:37.305Z,6.30
2022-12-18T22:28:27.085Z,6.50
2022-12-18T22:30:59.201Z,4.90
2022-12-18T22:33:28.717Z,7.20
2022-12-18T22:35:57.371Z,9.00
2022-12-18T22:38:26.163Z,8.70
2022-12-18T22:40:55.423Z,7.20
2022-12-18T22:43:24.151Z,8.90
2022-12-18T22:45:52.810Z,6.90
2022-12-18T22:48:21.984Z,6.30
2022-12-18T22:50:50.958Z,8.00
2022-12-18T22:53:22.462Z,10.20
2022-12-18T22:55:51.208Z,8.90
2022-12-18T22:58:19.750Z,6.80
2022-12-18T23:00:48.272Z,7.60
2022-12-18T23:03:16.855Z,7.60
2022-12-18T23:05:45.427Z,6.40
2022-12-18T23:08:13.973Z,5.80
2022-12-18T23:10:42.519Z,8.80
2022-12-18T23:13:11.082Z,6.90
2022-12-18T23:15:43.215Z,11.10
2022-12-18T23:20:40.385Z,7.50
2022-12-18T23:23:10.296Z,6.70
2022-12-18T23:25:38.913Z,8.00
2022-12-18T23:28:07.537Z,7.80
2022-12-18T23:30:36.270Z,7.50
2022-12-18T23:33:04.932Z,7.70
2022-12-18T23:35:33.611Z,6.30
2022-12-18T23:38:02.186Z,6.20
2022-12-18T23:40:30.712Z,6.50
2022-12-18T23:43:00.382Z,9.00
2022-12-18T23:45:28.972Z,6.50
2022-12-18T23:47:57.535Z,5.40
2022-12-18T23:50:29.424Z,9.20
2022-12-18T23:53:04.922Z,6.80
2022-12-18T23:55:42.220Z,4.60
2022-12-18T23:58:21.419Z,8.20
